createdAt,value
2019-04-21T00:01:05.048Z,97133.84
2019-04-21T00:03:37.835Z,97136.34
2019-04-21T00:06:18.696Z,97136.91
2019-04-21T00:08:44.145Z,97125.53
2019-04-21T00:13:32.603Z,97132.33
2019-04-21T00:15:53.883Z,97132.09
2019-04-21T00:18:40.687Z,97123.98
2019-04-21T00:21:08.238Z,97118.88
2019-04-21T00:23:41.138Z,97114.66
2019-04-21T00:26:04.023Z,97108.88
2019-04-21T00:28:42.841Z,97111.77
2019-04-21T00:31:06.481Z,97105.66
2019-04-21T00:33:24.403Z,97102.44
2019-04-21T00:35:52.608Z,97112.94
2019-04-21T00:38:34.592Z,97098.34
2019-04-21T00:41:00.343Z,97097.49
2019-04-21T00:43:26.563Z,97090.90
2019-04-21T00:45:48.185Z,97096.83
2019-04-21T00:48:29.863Z,97097.77
2019-04-21T00:51:11.046Z,97093.67
2019-04-21T00:53:35.756Z,97092.16
2019-04-21T00:56:03.507Z,97113.75
2019-04-21T00:58:29.995Z,97092.80
2019-04-21T01:00:58.032Z,97096.41
2019-04-21T01:03:26.436Z,97093.12
2019-04-21T01:05:52.761Z,97097.41
2019-04-21T01:08:13.213Z,97090.30
2019-04-21T01:11:07.022Z,97087.65
2019-04-21T01:13:54.130Z,97090.85
2019-04-21T01:16:05.665Z,97085.97
2019-04-21T01:18:32.558Z,97087.08
2019-04-21T01:20:36.856Z,97084.92
2019-04-21T01:23:04.239Z,97081.70
2019-04-21T01:25:36.804Z,97077.84
2019-04-21T01:28:15.131Z,97084.30
2019-04-21T01:30:44.951Z,97063.67
2019-04-21T01:35:56.541Z,97075.56
2019-04-21T01:38:28.902Z,97071.45
2019-04-21T01:40:52.943Z,97070.22
2019-04-21T01:43:13.396Z,97074.84
2019-04-21T01:45:45.902Z,97067.19
2019-04-21T01:48:13.397Z,97068.72
2019-04-21T01:50:34.795Z,97070.88
2019-04-21T01:53:17.555Z,97069.92
2019-04-21T01:55:52.849Z,97063.59
2019-04-21T01:58:14.317Z,97066.39
2019-04-21T02:00:45.147Z,97073.55
2019-04-21T02:03:38.912Z,97081.41
2019-04-21T02:05:51.982Z,97074.77
2019-04-21T02:08:12.396Z,97069.80
2019-04-21T02:10:49.101Z,97073.70
2019-04-21T02:13:09.035Z,97066.98
2019-04-21T02:15:46.472Z,97063.02
2019-04-21T02:18:07.528Z,97059.50
2019-04-21T02:20:25.903Z,97055.06
2019-04-21T02:23:31.869Z,97056.60
2019-04-21T02:25:31.886Z,97048.02
2019-04-21T02:28:07.952Z,97049.86
2019-04-21T02:30:50.370Z,97041.15
2019-04-21T02:33:27.928Z,97043.44
2019-04-21T02:35:41.814Z,97034.66
2019-04-21T02:38:21.116Z,97028.40
2019-04-21T02:40:47.802Z,97000.67
2019-04-21T02:48:06.365Z,97019.98
2019-04-21T02:55:17.966Z,97006.99
2019-04-21T02:57:51.893Z,97010.20
2019-04-21T03:00:23.787Z,97003.95
2019-04-21T03:03:07.296Z,97000.97
2019-04-21T03:05:48.848Z,96997.00
2019-04-21T03:10:48.666Z,96988.52
2019-04-21T03:13:07.639Z,96989.20
2019-04-21T03:18:04.754Z,96981.33
2019-04-21T03:23:00.161Z,96974.63
2019-04-21T03:25:33.065Z,96974.16
2019-04-21T03:27:56.964Z,96973.94
2019-04-21T03:30:26.316Z,96968.98
2019-04-21T03:35:48.241Z,96966.97
2019-04-21T03:40:18.721Z,96961.84
2019-04-21T03:42:48.033Z,96976.72
2019-04-21T03:45:25.218Z,96969.92
2019-04-21T03:47:43.153Z,96964.09
2019-04-21T03:50:16.309Z,96959.61
2019-04-21T03:52:45.915Z,96962.58
2019-04-21T04:00:42.533Z,96954.67
2019-04-21T04:03:42.159Z,96958.05
2019-04-21T04:06:08.306Z,96951.70
2019-04-21T04:08:39.619Z,96950.72
2019-04-21T04:11:04.603Z,96951.86
2019-04-21T04:13:29.572Z,96951.00
2019-04-21T04:16:05.907Z,96947.43
2019-04-21T04:18:29.940Z,96953.79
2019-04-21T04:20:46.605Z,96951.29
2019-04-21T04:23:35.586Z,96950.66
2019-04-21T04:25:43.365Z,96956.89
2019-04-21T04:28:28.880Z,96954.45
2019-04-21T04:30:39.896Z,96953.79
2019-04-21T04:33:15.046Z,96963.34
2019-04-21T04:35:48.975Z,96971.33
2019-04-21T04:38:06.184Z,96964.91
2019-04-21T04:40:34.507Z,96962.22
2019-04-21T04:48:09.179Z,96961.17
2019-04-21T04:50:43.354Z,96955.20
2019-04-21T04:53:07.452Z,96958.60
2019-04-21T04:55:33.943Z,96961.09
2019-04-21T05:02:58.221Z,96953.74
2019-04-21T05:05:26.873Z,96948.59
2019-04-21T05:10:22.330Z,96947.43
2019-04-21T05:12:44.254Z,96950.18
2019-04-21T05:15:14.819Z,96946.83
2019-04-21T05:20:11.572Z,96940.45
2019-04-21T05:22:47.670Z,96948.45
2019-04-21T05:24:53.742Z,96947.02
2019-04-21T05:27:29.515Z,96947.63
2019-04-21T05:30:08.012Z,96944.46
2019-04-21T05:32:41.645Z,96952.49
2019-04-21T05:35:07.890Z,96944.43
2019-04-21T05:37:47.646Z,96938.77
2019-04-21T05:40:13.245Z,96941.00
2019-04-21T05:42:43.820Z,96937.71
2019-04-21T05:45:21.084Z,96946.28
2019-04-21T05:47:50.106Z,96902.06
2019-04-21T05:50:11.403Z,96950.38
2019-04-21T05:52:47.642Z,96944.27
2019-04-21T05:55:29.402Z,96941.02
2019-04-21T05:57:50.601Z,96938.91
2019-04-21T06:00:33.470Z,96941.34
2019-04-21T06:02:53.451Z,96945.91
2019-04-21T06:05:20.401Z,96941.57
2019-04-21T06:07:41.442Z,96940.93
2019-04-21T06:10:04.524Z,96933.64
2019-04-21T06:12:40.322Z,96935.79
2019-04-21T06:15:12.190Z,96935.84
2019-04-21T06:17:34.866Z,96933.92
2019-04-21T06:20:01.391Z,96934.34
2019-04-21T06:22:27.117Z,96936.31
2019-04-21T06:27:40.813Z,96934.10
2019-04-21T06:29:54.477Z,96936.91
2019-04-21T06:32:36.049Z,96925.82
2019-04-21T06:35:09.079Z,96926.89
2019-04-21T06:37:40.493Z,96923.84
2019-04-21T06:40:02.881Z,96918.15
2019-04-21T06:42:16.188Z,96918.50
2019-04-21T06:44:54.533Z,96926.73
2019-04-21T06:47:26.031Z,96919.80
2019-04-21T06:49:41.207Z,96923.23
2019-04-21T06:52:18.157Z,96923.62
2019-04-21T06:54:42.251Z,96922.25
2019-04-21T06:57:00.636Z,96924.20
2019-04-21T06:59:37.192Z,96921.78
2019-04-21T07:02:21.307Z,96914.92
2019-04-21T07:04:31.247Z,96921.89
2019-04-21T07:07:16.241Z,96917.16
2019-04-21T07:09:57.445Z,96918.16
2019-04-21T07:11:54.869Z,96914.13
2019-04-21T07:14:28.030Z,96908.55
2019-04-21T07:22:03.913Z,96913.24
2019-04-21T07:24:21.730Z,96917.02
2019-04-21T07:26:46.816Z,96912.15
2019-04-21T07:29:14.237Z,96910.33
2019-04-21T07:31:48.142Z,96900.55
2019-04-21T07:34:29.007Z,96900.55
2019-04-21T07:36:45.040Z,96907.16
2019-04-21T07:39:03.231Z,96907.16
2019-04-21T07:41:25.096Z,96902.67
2019-04-21T07:43:57.263Z,96897.41
2019-04-21T07:46:24.782Z,96891.88
2019-04-21T07:48:59.882Z,96893.83
2019-04-21T07:51:47.686Z,96895.20
2019-04-21T07:54:18.695Z,96894.73
2019-04-21T07:56:25.538Z,96894.73
2019-04-21T07:59:06.956Z,96891.64
2019-04-21T08:01:37.323Z,96891.77
2019-04-21T08:04:08.445Z,96889.39
2019-04-21T08:06:38.744Z,96887.27
2019-04-21T08:09:00.692Z,96893.30
2019-04-21T08:11:19.732Z,96887.46
2019-04-21T08:13:55.078Z,96883.41
2019-04-21T08:16:24.102Z,96881.23
2019-04-21T08:18:52.179Z,96876.41
2019-04-21T08:21:15.436Z,96868.28
2019-04-21T08:23:43.415Z,96870.47
2019-04-21T08:26:34.242Z,96874.63
2019-04-21T08:31:09.968Z,96873.73
2019-04-21T08:33:47.012Z,96872.28
2019-04-21T08:36:19.363Z,96865.22
2019-04-21T08:38:34.379Z,96863.42
2019-04-21T08:41:01.588Z,96860.66
2019-04-21T08:43:40.031Z,96858.95
2019-04-21T08:46:13.570Z,96862.09
2019-04-21T08:48:22.589Z,96861.66
2019-04-21T08:50:53.945Z,96860.09
2019-04-21T08:53:20.870Z,96853.11
2019-04-21T08:56:07.481Z,96856.80
2019-04-21T08:58:28.960Z,96860.12
2019-04-21T09:01:02.441Z,96850.12
2019-04-21T09:03:29.898Z,96855.45
2019-04-21T09:06:00.087Z,96855.73
2019-04-21T09:08:27.897Z,96855.46
2019-04-21T09:10:56.041Z,96854.98
2019-04-21T09:13:17.553Z,96852.16
2019-04-21T09:15:47.963Z,96843.39
2019-04-21T09:18:13.394Z,96843.72
2019-04-21T09:20:48.753Z,96842.70
2019-04-21T09:23:16.252Z,96839.22
2019-04-21T09:25:44.682Z,96842.70
2019-04-21T09:28:08.079Z,96843.98
2019-04-21T09:30:17.555Z,96835.39
2019-04-21T09:32:44.563Z,96828.92
2019-04-21T09:35:14.772Z,96822.81
2019-04-21T09:37:47.322Z,96818.98
2019-04-21T09:40:06.920Z,96820.75
2019-04-21T09:42:41.162Z,96820.31
2019-04-21T09:45:04.460Z,96815.71
2019-04-21T09:47:35.193Z,96814.14
2019-04-21T09:49:56.557Z,96811.34
2019-04-21T09:52:26.631Z,96809.73
2019-04-21T09:54:58.601Z,96799.13
2019-04-21T09:57:27.641Z,96798.47
2019-04-21T09:59:53.858Z,96786.91
2019-04-21T10:02:21.309Z,96788.05
2019-04-21T10:04:42.496Z,96788.25
2019-04-21T10:07:09.077Z,96788.45
2019-04-21T10:09:37.685Z,96777.91
2019-04-21T10:12:03.779Z,96776.06
2019-04-21T10:14:30.852Z,96775.55
2019-04-21T10:16:59.974Z,96769.28
2019-04-21T10:19:27.498Z,96770.59
2019-04-21T10:21:54.281Z,96765.85
2019-04-21T10:24:20.276Z,96760.39
2019-04-21T10:26:47.172Z,96755.34
2019-04-21T10:29:20.294Z,96750.91
2019-04-21T10:31:41.091Z,96747.89
2019-04-21T10:34:07.414Z,96749.24
2019-04-21T10:36:33.503Z,96741.03
2019-04-21T10:39:00.800Z,96735.88
2019-04-21T10:41:27.620Z,96742.09
2019-04-21T10:43:53.697Z,96729.66
2019-04-21T10:46:19.512Z,96730.73
2019-04-21T10:48:46.345Z,96728.92
2019-04-21T10:51:13.026Z,96731.66
2019-04-21T10:53:41.001Z,96714.06
2019-04-21T10:56:14.510Z,96709.81
2019-04-21T10:58:36.482Z,96714.31
2019-04-21T11:01:04.607Z,96711.00
2019-04-21T11:03:38.332Z,96714.86
2019-04-21T11:06:06.593Z,96711.77
2019-04-21T11:08:37.905Z,96707.38
2019-04-21T11:11:01.633Z,96703.44
2019-04-21T11:13:28.379Z,96699.27
2019-04-21T11:15:55.199Z,96695.96
2019-04-21T11:18:21.941Z,96685.87
2019-04-21T11:20:48.929Z,96683.39
2019-04-21T11:23:14.813Z,96685.53
2019-04-21T11:25:42.170Z,96684.92
2019-04-21T11:28:09.015Z,96676.34
2019-04-21T11:30:35.855Z,96675.09
2019-04-21T11:33:01.681Z,96672.34
2019-04-21T11:35:27.677Z,96665.52
2019-04-21T11:38:04.494Z,96662.63
2019-04-21T11:40:23.587Z,96657.88
2019-04-21T11:42:49.960Z,96657.50
2019-04-21T11:45:34.706Z,96659.72
2019-04-21T11:48:12.443Z,96655.98
2019-04-21T11:50:39.198Z,96642.56
2019-04-21T11:53:05.363Z,96650.58
2019-04-21T11:55:34.291Z,96646.30
2019-04-21T11:58:00.326Z,96642.66
2019-04-21T12:00:27.386Z,96641.31
2019-04-21T12:02:53.715Z,96649.25
2019-04-21T12:05:19.608Z,96646.58
2019-04-21T12:07:45.513Z,96642.11
2019-04-21T12:10:11.578Z,96637.43
2019-04-21T12:12:37.607Z,96637.42
2019-04-21T12:15:06.077Z,96632.84
2019-04-21T12:17:32.103Z,96633.36
2019-04-21T12:19:58.998Z,96628.51
2019-04-21T12:22:28.939Z,96628.08
2019-04-21T12:24:53.232Z,96623.41
2019-04-21T12:27:20.366Z,96621.73
2019-04-21T12:29:46.238Z,96620.38
2019-04-21T12:32:30.465Z,96606.33
2019-04-21T12:34:57.812Z,96612.22
2019-04-21T12:37:24.709Z,96606.91
2019-04-21T12:39:50.856Z,96607.27
2019-04-21T12:42:16.791Z,96610.66
2019-04-21T12:44:43.400Z,96611.38
2019-04-21T12:47:10.062Z,96604.07
2019-04-21T12:49:36.022Z,96591.30
2019-04-21T12:52:02.056Z,96589.30
2019-04-21T12:54:28.132Z,96583.86
2019-04-21T12:56:53.961Z,96587.02
2019-04-21T12:59:21.181Z,96583.59
2019-04-21T13:01:48.547Z,96575.98
2019-04-21T13:04:15.624Z,96569.70
2019-04-21T13:06:41.810Z,96572.14
2019-04-21T13:09:11.205Z,96561.09
2019-04-21T13:11:35.541Z,96565.23
2019-04-21T13:14:01.901Z,96554.06
2019-04-21T13:16:27.783Z,96552.38
2019-04-21T13:18:53.903Z,96546.11
2019-04-21T13:21:22.318Z,96550.27
2019-04-21T13:23:49.169Z,96539.94
2019-04-21T13:26:27.143Z,96538.96
2019-04-21T13:28:44.660Z,96533.58
2019-04-21T13:31:11.833Z,96534.95
2019-04-21T13:33:38.149Z,96536.73
2019-04-21T13:36:04.942Z,96529.47
2019-04-21T13:38:38.725Z,96524.15
2019-04-21T13:41:17.569Z,96519.90
2019-04-21T13:43:30.761Z,96519.09
2019-04-21T13:45:57.537Z,96513.13
2019-04-21T13:48:24.392Z,96512.03
2019-04-21T13:50:51.209Z,96504.27
2019-04-21T13:53:17.055Z,96510.42
2019-04-21T13:55:44.629Z,96503.52
2019-04-21T13:58:10.552Z,96497.53
2019-04-21T14:00:37.900Z,96493.83
2019-04-21T14:03:04.750Z,96506.58
2019-04-21T14:05:30.778Z,96493.20
2019-04-21T14:07:58.024Z,96485.26
2019-04-21T14:10:24.013Z,96487.65
2019-04-21T14:12:50.693Z,96481.40
2019-04-21T14:15:18.087Z,96482.79
2019-04-21T14:17:44.652Z,96471.21
2019-04-21T14:20:10.943Z,96470.50
2019-04-21T14:22:40.055Z,96467.93
2019-04-21T14:25:07.855Z,96467.35
2019-04-21T14:27:34.392Z,96463.38
2019-04-21T14:30:00.612Z,96458.73
2019-04-21T14:32:26.619Z,96460.78
2019-04-21T14:34:54.016Z,96464.09
2019-04-21T14:37:20.424Z,96454.66
2019-04-21T14:39:52.792Z,96451.37
2019-04-21T14:42:14.330Z,96450.41
2019-04-21T14:44:40.809Z,96453.69
2019-04-21T14:47:09.247Z,96446.20
2019-04-21T14:49:42.877Z,96438.67
2019-04-21T14:52:10.933Z,96437.27
2019-04-21T14:54:51.023Z,96445.05
2019-04-21T14:57:17.141Z,96433.05
2019-04-21T14:59:45.201Z,96430.28
2019-04-21T15:02:11.747Z,96428.84
2019-04-21T15:04:37.751Z,96420.50
2019-04-21T15:07:07.647Z,96423.99
2019-04-21T15:09:37.051Z,96433.48
2019-04-21T15:12:02.375Z,96418.50
2019-04-21T15:14:29.777Z,96421.30
2019-04-21T15:16:56.815Z,96419.27
2019-04-21T15:19:22.712Z,96421.06
2019-04-21T15:21:52.388Z,96419.25
2019-04-21T15:24:18.430Z,96417.16
2019-04-21T15:26:44.530Z,96410.19
2019-04-21T15:29:10.785Z,96411.66
2019-04-21T15:31:39.601Z,96408.79
2019-04-21T15:34:05.380Z,96402.81
2019-04-21T15:36:33.281Z,96403.02
2019-04-21T15:38:59.078Z,96402.72
2019-04-21T15:41:25.252Z,96397.92
2019-04-21T15:43:51.055Z,96399.35
2019-04-21T15:46:16.879Z,96399.36
2019-04-21T15:48:48.573Z,96400.28
2019-04-21T15:51:15.815Z,96389.52
2019-04-21T15:53:43.975Z,96392.84
2019-04-21T15:56:15.264Z,96388.23
2019-04-21T15:58:52.654Z,96386.88
2019-04-21T16:01:23.198Z,96382.83
2019-04-21T16:03:49.055Z,96377.39
2019-04-21T16:06:14.777Z,96380.69
2019-04-21T16:08:40.858Z,96376.03
2019-04-21T16:11:09.037Z,96368.14
2019-04-21T16:13:34.622Z,96364.48
2019-04-21T16:16:02.116Z,96364.38
2019-04-21T16:18:28.116Z,96357.14
2019-04-21T16:20:53.906Z,96362.84
2019-04-21T16:23:20.254Z,96352.30
2019-04-21T16:25:48.594Z,96354.13
2019-04-21T16:28:15.448Z,96354.95
2019-04-21T16:30:42.532Z,96358.69
2019-04-21T16:33:10.087Z,96353.61
2019-04-21T16:35:37.758Z,96352.90
2019-04-21T16:38:04.147Z,96342.83
2019-04-21T16:40:41.366Z,96344.55
2019-04-21T16:42:58.331Z,96337.66
2019-04-21T16:45:25.265Z,96337.66
2019-04-21T16:47:54.046Z,96342.03
2019-04-21T16:50:21.550Z,96345.84
2019-04-21T16:52:52.273Z,96338.06
2019-04-21T16:55:39.296Z,96343.48
2019-04-21T16:58:12.664Z,96334.87
2019-04-21T17:00:44.088Z,96341.23
2019-04-21T17:03:04.533Z,96343.03
2019-04-21T17:05:30.320Z,96328.06
2019-04-21T17:07:57.681Z,96331.53
2019-04-21T17:10:24.557Z,96276.75
2019-04-21T17:12:51.310Z,96328.81
2019-04-21T17:15:33.786Z,96267.84
2019-04-21T17:18:05.968Z,96330.65
2019-04-21T17:20:27.828Z,96326.38
2019-04-21T17:22:41.736Z,96331.22
2019-04-21T17:25:08.700Z,96326.81
2019-04-21T17:27:36.539Z,96328.92
2019-04-21T17:30:06.392Z,96325.19
2019-04-21T17:32:37.206Z,96335.24
2019-04-21T17:35:01.834Z,96330.72
2019-04-21T17:37:29.197Z,96330.17
2019-04-21T17:39:56.878Z,96324.04
2019-04-21T17:42:30.053Z,96322.30
2019-04-21T17:44:51.113Z,96328.23
2019-04-21T17:47:29.938Z,96321.94
2019-04-21T17:49:49.050Z,96325.97
2019-04-21T17:52:19.807Z,96317.06
2019-04-21T17:54:50.609Z,96321.48
2019-04-21T17:57:36.838Z,96317.59
2019-04-21T18:00:25.860Z,96322.12
2019-04-21T18:02:35.089Z,96316.91
2019-04-21T18:05:07.194Z,96326.73
2019-04-21T18:07:31.457Z,96322.39
2019-04-21T18:12:26.378Z,96322.70
2019-04-21T18:14:50.325Z,96322.41
2019-04-21T18:17:06.537Z,96327.75
2019-04-21T18:19:36.825Z,96323.62
2019-04-21T18:22:06.992Z,96288.75
2019-04-21T18:24:47.198Z,96321.00
2019-04-21T18:27:07.052Z,96324.31
2019-04-21T18:29:31.672Z,96326.48
2019-04-21T18:31:59.275Z,96319.70
2019-04-21T18:34:42.818Z,96321.34
2019-04-21T18:37:18.621Z,96320.86
2019-04-21T18:39:52.726Z,96323.50
2019-04-21T18:42:26.356Z,96327.45
2019-04-21T18:45:34.465Z,96319.49
2019-04-21T18:47:58.068Z,96325.45
2019-04-21T18:50:31.571Z,96323.25
2019-04-21T18:53:04.838Z,96330.20
2019-04-21T18:55:32.292Z,96331.33
2019-04-21T18:57:54.965Z,96330.66
2019-04-21T19:00:26.436Z,96333.30
2019-04-21T19:02:51.740Z,96335.56
2019-04-21T19:05:21.182Z,96329.29
2019-04-21T19:08:05.704Z,96334.87
2019-04-21T19:10:35.271Z,96334.01
2019-04-21T19:15:20.382Z,96327.60
2019-04-21T19:18:28.130Z,96336.19
2019-04-21T19:20:25.566Z,96337.03
2019-04-21T19:22:47.251Z,96338.80
2019-04-21T19:25:20.887Z,96336.11
2019-04-21T19:27:51.640Z,96336.11
2019-04-21T19:32:45.513Z,96340.03
2019-04-21T19:34:59.673Z,96339.80
2019-04-21T19:37:27.004Z,96338.47
2019-04-21T19:40:05.413Z,96338.71
2019-04-21T19:42:32.033Z,96336.54
2019-04-21T19:45:06.090Z,96336.54
2019-04-21T19:47:41.699Z,96337.47
2019-04-21T19:50:06.185Z,96331.02
2019-04-21T19:52:26.617Z,96331.02
2019-04-21T19:54:44.882Z,96336.11
2019-04-21T19:57:09.041Z,96320.19
2019-04-21T19:59:42.286Z,96320.19
2019-04-21T20:02:04.602Z,96316.73
2019-04-21T20:04:38.545Z,96318.38
2019-04-21T20:07:10.403Z,96328.05
2019-04-21T20:09:43.227Z,96328.05
2019-04-21T20:12:09.502Z,96317.02
2019-04-21T20:14:59.664Z,96320.97
2019-04-21T20:17:05.884Z,96318.15
2019-04-21T20:19:21.025Z,96320.91
2019-04-21T20:21:47.166Z,96320.20
2019-04-21T20:24:18.537Z,96323.09
2019-04-21T20:26:43.815Z,96311.44
2019-04-21T20:29:31.249Z,96312.09
2019-04-21T20:31:53.031Z,96312.09
2019-04-21T20:34:26.640Z,96313.22
2019-04-21T20:36:59.246Z,96305.43
2019-04-21T20:39:05.928Z,96305.43
2019-04-21T20:41:40.911Z,96300.47
2019-04-21T20:44:11.940Z,96301.72
2019-04-21T20:46:39.448Z,96301.72
2019-04-21T20:49:06.931Z,96298.36
2019-04-21T20:51:37.976Z,96298.64
2019-04-21T20:54:02.956Z,96300.27
2019-04-21T20:56:26.891Z,96293.09
2019-04-21T20:58:59.989Z,96295.28
2019-04-21T21:01:34.791Z,96293.49
2019-04-21T21:03:53.039Z,96296.59
2019-04-21T21:06:21.785Z,96295.47
2019-04-21T21:08:52.715Z,96293.25
2019-04-21T21:11:15.124Z,96293.95
2019-04-21T21:13:47.795Z,96286.41
2019-04-21T21:21:11.171Z,96285.53
2019-04-21T21:23:42.748Z,96293.75
2019-04-21T21:26:11.453Z,96287.77
2019-04-21T21:28:36.532Z,96292.61
2019-04-21T21:31:04.170Z,96290.63
2019-04-21T21:33:37.265Z,96286.95
2019-04-21T21:36:03.173Z,96282.59
2019-04-21T21:38:28.464Z,96280.97
2019-04-21T21:40:51.505Z,96284.12
2019-04-21T21:43:08.254Z,96299.06
2019-04-21T21:45:40.083Z,96291.27
2019-04-21T21:48:20.902Z,96287.52
2019-04-21T21:50:42.092Z,96286.83
2019-04-21T21:53:04.204Z,96290.77
2019-04-21T21:55:25.610Z,96285.58
2019-04-21T21:57:55.394Z,96281.91
2019-04-21T22:00:23.950Z,96282.06
2019-04-21T22:02:53.498Z,96289.31
2019-04-21T22:05:24.355Z,96282.91
2019-04-21T22:07:46.883Z,96284.97
2019-04-21T22:10:13.167Z,96281.46
2019-04-21T22:12:48.534Z,96276.41
2019-04-21T22:15:13.903Z,96272.75
2019-04-21T22:17:49.649Z,96276.09
2019-04-21T22:20:27.220Z,96272.25
2019-04-21T22:22:44.821Z,96275.20
2019-04-21T22:25:11.983Z,96275.47
2019-04-21T22:27:32.816Z,96276.94
2019-04-21T22:30:03.201Z,96277.17
2019-04-21T22:32:29.069Z,96278.05
2019-04-21T22:34:59.904Z,96276.23
2019-04-21T22:37:39.243Z,96278.30
2019-04-21T22:40:04.455Z,96278.30
2019-04-21T22:42:26.591Z,96270.94
2019-04-21T22:44:46.625Z,96273.20
2019-04-21T22:47:18.391Z,96269.74
2019-04-21T22:49:40.959Z,96266.43
2019-04-21T22:52:11.293Z,96261.28
2019-04-21T22:54:40.828Z,96266.42
2019-04-21T22:57:11.525Z,96265.98
2019-04-21T22:59:32.426Z,96272.68
2019-04-21T23:01:59.425Z,96266.25
2019-04-21T23:04:32.894Z,96277.23
2019-04-21T23:06:59.331Z,96269.00
2019-04-21T23:09:20.733Z,96263.94
2019-04-21T23:11:50.729Z,96261.91
2019-04-21T23:14:16.853Z,96262.87
2019-04-21T23:16:45.594Z,96256.82
2019-04-21T23:19:24.087Z,96254.81
2019-04-21T23:22:01.007Z,96253.50
2019-04-21T23:24:33.096Z,96251.61
2019-04-21T23:26:49.084Z,96249.34
2019-04-21T23:29:17.374Z,96243.77
2019-04-21T23:31:51.807Z,96252.34
2019-04-21T23:33:58.068Z,96251.15
2019-04-21T23:36:28.202Z,96244.13
2019-04-21T23:38:54.768Z,96238.91
2019-04-21T23:41:19.704Z,96240.27
2019-04-21T23:43:53.165Z,96241.94
2019-04-21T23:46:20.261Z,96240.88
2019-04-21T23:48:57.855Z,96232.22
2019-04-21T23:51:21.803Z,96240.38
2019-04-21T23:53:37.498Z,96228.87
2019-04-21T23:56:03.560Z,96227.22
2019-04-21T23:58:31.744Z,96223.79
